sensor_id;sensor_type;location;lat;lon;timestamp;temperature;humidity
16172;DHT22;8192;53.596;10.166;2023-03-11T00:02:17;-0.40;99.90
16172;DHT22;8192;53.596;10.166;2023-03-11T00:04:44;-0.40;99.90
16172;DHT22;8192;53.596;10.166;2023-03-11T00:07:11;-0.40;99.90
16172;DHT22;8192;53.596;10.166;2023-03-11T00:09:38;-0.40;99.90
16172;DHT22;8192;53.596;10.166;2023-03-11T00:12:06;-0.40;99.90
16172;DHT22;8192;53.596;10.166;2023-03-11T00:14:33;-0.40;99.90
16172;DHT22;8192;53.596;10.166;2023-03-11T00:17:03;-0.30;99.90
16172;DHT22;8192;53.596;10.166;2023-03-11T00:19:30;-0.40;99.90
16172;DHT22;8192;53.596;10.166;2023-03-11T00:21:57;-0.40;99.90
16172;DHT22;8192;53.596;10.166;2023-03-11T00:24:24;-0.40;99.90
16172;DHT22;8192;53.596;10.166;2023-03-11T00:26:51;-0.40;99.90
16172;DHT22;8192;53.596;10.166;2023-03-11T00:29:18;-0.40;99.90
16172;DHT22;8192;53.596;10.166;2023-03-11T00:31:45;-0.40;99.90
16172;DHT22;8192;53.596;10.166;2023-03-11T00:34:13;-0.40;99.90
16172;DHT22;8192;53.596;10.166;2023-03-11T00:36:40;-0.40;99.90
16172;DHT22;8192;53.596;10.166;2023-03-11T00:39:07;-0.40;99.90
16172;DHT22;8192;53.596;10.166;2023-03-11T00:41:35;-0.40;99.90
16172;DHT22;8192;53.596;10.166;2023-03-11T00:44:03;-0.40;99.90
16172;DHT22;8192;53.596;10.166;2023-03-11T00:46:30;-0.40;99.90
16172;DHT22;8192;53.596;10.166;2023-03-11T00:48:57;-0.30;99.90
16172;DHT22;8192;53.596;10.166;2023-03-11T00:51:25;-0.40;99.90
16172;DHT22;8192;53.596;10.166;2023-03-11T00:53:52;-0.40;99.90
16172;DHT22;8192;53.596;10.166;2023-03-11T00:56:19;-0.30;99.90
16172;DHT22;8192;53.596;10.166;2023-03-11T00:58:46;-0.30;99.90
16172;DHT22;8192;53.596;10.166;2023-03-11T01:01:15;-0.40;99.90
16172;DHT22;8192;53.596;10.166;2023-03-11T01:03:43;-0.30;99.90
16172;DHT22;8192;53.596;10.166;2023-03-11T01:06:11;-0.30;99.90
16172;DHT22;8192;53.596;10.166;2023-03-11T01:08:40;-0.30;99.90
16172;DHT22;8192;53.596;10.166;2023-03-11T01:11:07;-0.30;99.90
16172;DHT22;8192;53.596;10.166;2023-03-11T01:13:35;-0.30;99.90
16172;DHT22;8192;53.596;10.166;2023-03-11T01:16:03;-0.30;99.90
16172;DHT22;8192;53.596;10.166;2023-03-11T01:18:32;-0.30;99.90
16172;DHT22;8192;53.596;10.166;2023-03-11T01:20:59;-0.30;99.90
16172;DHT22;8192;53.596;10.166;2023-03-11T01:23:26;-0.30;99.90
16172;DHT22;8192;53.596;10.166;2023-03-11T01:25:54;-0.30;99.90
16172;DHT22;8192;53.596;10.166;2023-03-11T01:28:24;-0.30;99.90
16172;DHT22;8192;53.596;10.166;2023-03-11T01:30:51;-0.20;99.90
16172;DHT22;8192;53.596;10.166;2023-03-11T01:33:20;-0.30;99.90
16172;DHT22;8192;53.596;10.166;2023-03-11T01:35:47;-0.30;99.90
16172;DHT22;8192;53.596;10.166;2023-03-11T01:38:15;-0.30;99.90
16172;DHT22;8192;53.596;10.166;2023-03-11T01:40:44;-0.30;99.90
16172;DHT22;8192;53.596;10.166;2023-03-11T01:43:46;-0.30;99.90
16172;DHT22;8192;53.596;10.166;2023-03-11T01:47:23;-0.30;99.90
16172;DHT22;8192;53.596;10.166;2023-03-11T01:49:10;-0.30;99.90
16172;DHT22;8192;53.596;10.166;2023-03-11T01:51:40;-0.30;99.90
16172;DHT22;8192;53.596;10.166;2023-03-11T01:54:10;-0.30;99.90
16172;DHT22;8192;53.596;10.166;2023-03-11T01:56:39;-0.30;99.90
16172;DHT22;8192;53.596;10.166;2023-03-11T01:59:11;-0.30;99.90
16172;DHT22;8192;53.596;10.166;2023-03-11T02:01:45;-0.30;99.90
16172;DHT22;8192;53.596;10.166;2023-03-11T02:04:20;-0.30;99.90
16172;DHT22;8192;53.596;10.166;2023-03-11T02:06:47;-0.40;99.90
16172;DHT22;8192;53.596;10.166;2023-03-11T02:09:14;-0.30;99.90
16172;DHT22;8192;53.596;10.166;2023-03-11T02:11:41;-0.30;99.90
16172;DHT22;8192;53.596;10.166;2023-03-11T02:14:10;-0.40;99.90
16172;DHT22;8192;53.596;10.166;2023-03-11T02:16:39;-0.40;99.90
16172;DHT22;8192;53.596;10.166;2023-03-11T02:19:11;-0.40;99.90
16172;DHT22;8192;53.596;10.166;2023-03-11T02:21:41;-0.40;99.90
16172;DHT22;8192;53.596;10.166;2023-03-11T02:24:12;-0.40;99.90
16172;DHT22;8192;53.596;10.166;2023-03-11T02:26:52;-0.40;99.90
16172;DHT22;8192;53.596;10.166;2023-03-11T02:29:20;-0.40;99.90
16172;DHT22;8192;53.596;10.166;2023-03-11T02:31:48;-0.40;99.90
16172;DHT22;8192;53.596;10.166;2023-03-11T02:34:20;-0.40;99.90
16172;DHT22;8192;53.596;10.166;2023-03-11T02:36:48;-0.40;99.90
16172;DHT22;8192;53.596;10.166;2023-03-11T02:39:37;-0.40;99.90
16172;DHT22;8192;53.596;10.166;2023-03-11T02:42:09;-0.40;99.90
16172;DHT22;8192;53.596;10.166;2023-03-11T02:44:38;-0.40;99.90
16172;DHT22;8192;53.596;10.166;2023-03-11T02:47:07;-0.40;99.90
16172;DHT22;8192;53.596;10.166;2023-03-11T02:49:35;-0.50;99.90
16172;DHT22;8192;53.596;10.166;2023-03-11T02:52:02;-0.60;99.90
16172;DHT22;8192;53.596;10.166;2023-03-11T02:54:30;-0.50;99.90
16172;DHT22;8192;53.596;10.166;2023-03-11T02:56:57;-0.50;99.90
16172;DHT22;8192;53.596;10.166;2023-03-11T02:59:25;-0.60;99.90
16172;DHT22;8192;53.596;10.166;2023-03-11T03:01:53;-0.60;99.90
16172;DHT22;8192;53.596;10.166;2023-03-11T03:04:19;-0.60;99.90
16172;DHT22;8192;53.596;10.166;2023-03-11T03:06:46;-0.60;99.90
16172;DHT22;8192;53.596;10.166;2023-03-11T03:09:13;-0.60;99.90
16172;DHT22;8192;53.596;10.166;2023-03-11T03:11:40;-0.60;99.90
16172;DHT22;8192;53.596;10.166;2023-03-11T03:14:07;-0.70;99.90
16172;DHT22;8192;53.596;10.166;2023-03-11T03:16:36;-0.70;99.90
16172;DHT22;8192;53.596;10.166;2023-03-11T03:19:04;-0.70;99.90
16172;DHT22;8192;53.596;10.166;2023-03-11T03:21:31;-0.70;99.90
16172;DHT22;8192;53.596;10.166;2023-03-11T03:23:58;-0.70;99.90
16172;DHT22;8192;53.596;10.166;2023-03-11T03:26:25;-0.70;99.90
16172;DHT22;8192;53.596;10.166;2023-03-11T03:28:52;-0.70;99.90
16172;DHT22;8192;53.596;10.166;2023-03-11T03:31:24;-0.80;99.90
16172;DHT22;8192;53.596;10.166;2023-03-11T03:33:53;-0.80;99.90
16172;DHT22;8192;53.596;10.166;2023-03-11T03:36:21;-0.80;99.90
16172;DHT22;8192;53.596;10.166;2023-03-11T03:38:52;-0.80;99.90
16172;DHT22;8192;53.596;10.166;2023-03-11T03:41:21;-0.80;99.90
16172;DHT22;8192;53.596;10.166;2023-03-11T03:43:48;-0.80;99.90
16172;DHT22;8192;53.596;10.166;2023-03-11T03:46:15;-0.80;99.90
16172;DHT22;8192;53.596;10.166;2023-03-11T03:48:43;-0.80;99.90
16172;DHT22;8192;53.596;10.166;2023-03-11T03:51:12;-0.80;99.90
16172;DHT22;8192;53.596;10.166;2023-03-11T03:53:39;-0.80;99.90
16172;DHT22;8192;53.596;10.166;2023-03-11T03:56:08;-0.80;99.90
16172;DHT22;8192;53.596;10.166;2023-03-11T03:58:36;-0.80;99.90
16172;DHT22;8192;53.596;10.166;2023-03-11T04:01:03;-0.80;99.90
16172;DHT22;8192;53.596;10.166;2023-03-11T04:03:30;-0.80;99.90
16172;DHT22;8192;53.596;10.166;2023-03-11T04:06:05;-0.80;99.90
16172;DHT22;8192;53.596;10.166;2023-03-11T04:08:34;-0.80;99.90
16172;DHT22;8192;53.596;10.166;2023-03-11T04:11:03;-0.80;99.90
16172;DHT22;8192;53.596;10.166;2023-03-11T04:13:30;-0.70;99.90
16172;DHT22;8192;53.596;10.166;2023-03-11T04:15:57;-0.80;99.90
16172;DHT22;8192;53.596;10.166;2023-03-11T04:18:24;-0.80;99.90
16172;DHT22;8192;53.596;10.166;2023-03-11T04:20:52;-0.80;99.90
16172;DHT22;8192;53.596;10.166;2023-03-11T04:23:19;-0.80;99.90
16172;DHT22;8192;53.596;10.166;2023-03-11T04:25:47;-0.80;99.90
16172;DHT22;8192;53.596;10.166;2023-03-11T04:28:14;-0.80;99.90
16172;DHT22;8192;53.596;10.166;2023-03-11T04:30:41;-0.80;99.90
16172;DHT22;8192;53.596;10.166;2023-03-11T04:33:08;-0.80;99.90
16172;DHT22;8192;53.596;10.166;2023-03-11T04:35:37;-0.90;99.90
16172;DHT22;8192;53.596;10.166;2023-03-11T04:38:04;-1.00;99.90
16172;DHT22;8192;53.596;10.166;2023-03-11T04:40:31;-1.00;99.90
16172;DHT22;8192;53.596;10.166;2023-03-11T04:43:00;-0.90;99.90
16172;DHT22;8192;53.596;10.166;2023-03-11T04:45:27;-1.10;99.90
16172;DHT22;8192;53.596;10.166;2023-03-11T04:47:54;-1.20;99.90
16172;DHT22;8192;53.596;10.166;2023-03-11T04:50:21;-1.40;99.90
16172;DHT22;8192;53.596;10.166;2023-03-11T04:52:48;-1.40;99.90
16172;DHT22;8192;53.596;10.166;2023-03-11T04:55:15;-1.40;99.90
16172;DHT22;8192;53.596;10.166;2023-03-11T04:57:43;-1.50;99.90
16172;DHT22;8192;53.596;10.166;2023-03-11T05:00:12;-1.50;99.90
16172;DHT22;8192;53.596;10.166;2023-03-11T05:02:40;-1.60;99.90
16172;DHT22;8192;53.596;10.166;2023-03-11T05:05:09;-1.60;99.90
16172;DHT22;8192;53.596;10.166;2023-03-11T05:07:36;-1.50;99.90
16172;DHT22;8192;53.596;10.166;2023-03-11T05:10:04;-1.50;99.90
16172;DHT22;8192;53.596;10.166;2023-03-11T05:12:33;-1.40;99.90
16172;DHT22;8192;53.596;10.166;2023-03-11T05:15:00;-1.30;99.90
16172;DHT22;8192;53.596;10.166;2023-03-11T05:17:32;-1.40;99.90
16172;DHT22;8192;53.596;10.166;2023-03-11T05:19:59;-1.30;99.90
16172;DHT22;8192;53.596;10.166;2023-03-11T05:22:26;-1.30;99.90
16172;DHT22;8192;53.596;10.166;2023-03-11T05:24:53;-1.30;99.90
16172;DHT22;8192;53.596;10.166;2023-03-11T05:27:20;-1.30;99.90
16172;DHT22;8192;53.596;10.166;2023-03-11T05:29:51;-1.30;99.90
16172;DHT22;8192;53.596;10.166;2023-03-11T05:32:18;-1.20;99.90
16172;DHT22;8192;53.596;10.166;2023-03-11T05:34:47;-1.20;99.90
16172;DHT22;8192;53.596;10.166;2023-03-11T05:37:14;-1.20;99.90
16172;DHT22;8192;53.596;10.166;2023-03-11T05:39:41;-1.20;99.90
16172;DHT22;8192;53.596;10.166;2023-03-11T05:42:08;-1.20;99.90
16172;DHT22;8192;53.596;10.166;2023-03-11T05:44:36;-1.30;99.90
16172;DHT22;8192;53.596;10.166;2023-03-11T05:47:05;-1.30;99.90
16172;DHT22;8192;53.596;10.166;2023-03-11T05:49:32;-1.30;99.90
16172;DHT22;8192;53.596;10.166;2023-03-11T05:52:03;-1.30;99.90
16172;DHT22;8192;53.596;10.166;2023-03-11T05:54:31;-1.30;99.90
16172;DHT22;8192;53.596;10.166;2023-03-11T05:56:58;-1.30;99.90
16172;DHT22;8192;53.596;10.166;2023-03-11T05:59:25;-1.40;99.90
16172;DHT22;8192;53.596;10.166;2023-03-11T06:01:52;-1.40;99.90
16172;DHT22;8192;53.596;10.166;2023-03-11T06:04:19;-1.50;99.90
16172;DHT22;8192;53.596;10.166;2023-03-11T06:06:46;-1.40;99.90
16172;DHT22;8192;53.596;10.166;2023-03-11T06:09:15;-1.40;99.90
16172;DHT22;8192;53.596;10.166;2023-03-11T06:11:42;-1.40;99.90
16172;DHT22;8192;53.596;10.166;2023-03-11T06:14:10;-1.40;99.90
16172;DHT22;8192;53.596;10.166;2023-03-11T06:16:38;-1.40;99.90
16172;DHT22;8192;53.596;10.166;2023-03-11T06:19:06;-1.40;99.90
16172;DHT22;8192;53.596;10.166;2023-03-11T06:21:33;-1.50;99.90
16172;DHT22;8192;53.596;10.166;2023-03-11T06:24:00;-1.50;99.90
16172;DHT22;8192;53.596;10.166;2023-03-11T06:26:30;-1.60;99.90
16172;DHT22;8192;53.596;10.166;2023-03-11T06:28:58;-1.60;99.90
16172;DHT22;8192;53.596;10.166;2023-03-11T06:31:26;-1.60;99.90
16172;DHT22;8192;53.596;10.166;2023-03-11T06:33:55;-1.60;99.90
16172;DHT22;8192;53.596;10.166;2023-03-11T06:36:23;-1.60;99.90
16172;DHT22;8192;53.596;10.166;2023-03-11T06:38:51;-1.60;99.90
16172;DHT22;8192;53.596;10.166;2023-03-11T06:41:18;-1.60;99.90
16172;DHT22;8192;53.596;10.166;2023-03-11T06:43:47;-1.40;99.90
16172;DHT22;8192;53.596;10.166;2023-03-11T06:46:16;-1.00;99.90
16172;DHT22;8192;53.596;10.166;2023-03-11T06:48:44;-0.60;99.90
16172;DHT22;8192;53.596;10.166;2023-03-11T06:51:12;-0.30;99.90
16172;DHT22;8192;53.596;10.166;2023-03-11T06:53:42;-0.20;99.90
16172;DHT22;8192;53.596;10.166;2023-03-11T06:56:11;0.00;99.90
16172;DHT22;8192;53.596;10.166;2023-03-11T06:58:40;0.10;99.90
16172;DHT22;8192;53.596;10.166;2023-03-11T07:01:15;0.20;99.90
16172;DHT22;8192;53.596;10.166;2023-03-11T07:03:51;0.50;99.90
16172;DHT22;8192;53.596;10.166;2023-03-11T07:06:28;0.40;99.90
16172;DHT22;8192;53.596;10.166;2023-03-11T07:08:55;0.50;99.90
16172;DHT22;8192;53.596;10.166;2023-03-11T07:14:55;1.10;99.90
16172;DHT22;8192;53.596;10.166;2023-03-11T07:17:25;1.30;99.90
16172;DHT22;8192;53.596;10.166;2023-03-11T07:19:52;1.50;99.90
16172;DHT22;8192;53.596;10.166;2023-03-11T07:22:20;1.60;99.90
16172;DHT22;8192;53.596;10.166;2023-03-11T07:25:04;1.50;99.90
16172;DHT22;8192;53.596;10.166;2023-03-11T07:27:31;1.50;99.90
16172;DHT22;8192;53.596;10.166;2023-03-11T07:30:00;1.60;99.90
16172;DHT22;8192;53.596;10.166;2023-03-11T07:32:30;1.40;99.90
16172;DHT22;8192;53.596;10.166;2023-03-11T07:34:57;1.60;99.90
16172;DHT22;8192;53.596;10.166;2023-03-11T07:37:24;1.50;99.90
16172;DHT22;8192;53.596;10.166;2023-03-11T07:39:52;1.40;99.90
16172;DHT22;8192;53.596;10.166;2023-03-11T07:42:19;1.60;99.90
16172;DHT22;8192;53.596;10.166;2023-03-11T07:44:51;1.20;99.90
16172;DHT22;8192;53.596;10.166;2023-03-11T07:47:19;0.90;99.90
16172;DHT22;8192;53.596;10.166;2023-03-11T07:49:48;0.60;99.90
16172;DHT22;8192;53.596;10.166;2023-03-11T07:52:15;0.40;99.90
16172;DHT22;8192;53.596;10.166;2023-03-11T07:54:55;0.20;99.90
16172;DHT22;8192;53.596;10.166;2023-03-11T07:57:22;0.00;99.90
16172;DHT22;8192;53.596;10.166;2023-03-11T07:59:56;0.20;99.90
16172;DHT22;8192;53.596;10.166;2023-03-11T08:02:23;0.30;99.90
16172;DHT22;8192;53.596;10.166;2023-03-11T08:04:57;0.40;99.90
16172;DHT22;8192;53.596;10.166;2023-03-11T08:07:25;0.30;99.90
16172;DHT22;8192;53.596;10.166;2023-03-11T08:09:54;0.40;99.90
16172;DHT22;8192;53.596;10.166;2023-03-11T08:12:21;0.50;99.90
16172;DHT22;8192;53.596;10.166;2023-03-11T08:14:48;0.50;99.90
16172;DHT22;8192;53.596;10.166;2023-03-11T08:17:16;0.60;99.90
16172;DHT22;8192;53.596;10.166;2023-03-11T08:19:44;0.50;99.90
16172;DHT22;8192;53.596;10.166;2023-03-11T08:22:15;0.60;99.90
16172;DHT22;8192;53.596;10.166;2023-03-11T08:24:43;0.70;99.90
16172;DHT22;8192;53.596;10.166;2023-03-11T08:27:14;0.70;99.90
16172;DHT22;8192;53.596;10.166;2023-03-11T08:29:47;0.60;99.90
16172;DHT22;8192;53.596;10.166;2023-03-11T08:32:14;0.60;99.90
16172;DHT22;8192;53.596;10.166;2023-03-11T08:34:41;0.70;99.90
16172;DHT22;8192;53.596;10.166;2023-03-11T08:37:09;0.80;99.90
16172;DHT22;8192;53.596;10.166;2023-03-11T08:39:37;0.80;99.90
16172;DHT22;8192;53.596;10.166;2023-03-11T08:42:05;0.80;99.90
16172;DHT22;8192;53.596;10.166;2023-03-11T08:44:33;0.80;99.90
16172;DHT22;8192;53.596;10.166;2023-03-11T08:47:01;0.70;99.90
16172;DHT22;8192;53.596;10.166;2023-03-11T08:49:28;0.80;99.90
16172;DHT22;8192;53.596;10.166;2023-03-11T08:51:55;0.80;99.90
16172;DHT22;8192;53.596;10.166;2023-03-11T08:54:23;0.80;99.90
16172;DHT22;8192;53.596;10.166;2023-03-11T08:56:51;1.00;99.90
16172;DHT22;8192;53.596;10.166;2023-03-11T08:59:18;1.00;99.90
16172;DHT22;8192;53.596;10.166;2023-03-11T09:01:46;0.90;99.90
16172;DHT22;8192;53.596;10.166;2023-03-11T09:04:13;0.90;99.90
16172;DHT22;8192;53.596;10.166;2023-03-11T09:06:43;0.90;99.90
16172;DHT22;8192;53.596;10.166;2023-03-11T09:09:15;0.90;99.90
16172;DHT22;8192;53.596;10.166;2023-03-11T09:11:45;0.90;99.90
16172;DHT22;8192;53.596;10.166;2023-03-11T09:14:13;1.00;99.90
16172;DHT22;8192;53.596;10.166;2023-03-11T09:16:43;1.10;99.90
16172;DHT22;8192;53.596;10.166;2023-03-11T09:19:11;1.10;99.90
16172;DHT22;8192;53.596;10.166;2023-03-11T09:21:38;1.10;99.90
16172;DHT22;8192;53.596;10.166;2023-03-11T09:24:06;1.00;99.90
16172;DHT22;8192;53.596;10.166;2023-03-11T09:26:33;1.00;99.90
16172;DHT22;8192;53.596;10.166;2023-03-11T09:29:01;1.10;99.90
16172;DHT22;8192;53.596;10.166;2023-03-11T09:31:29;1.20;99.90
16172;DHT22;8192;53.596;10.166;2023-03-11T09:33:57;1.20;99.90
16172;DHT22;8192;53.596;10.166;2023-03-11T09:36:24;1.20;99.90
16172;DHT22;8192;53.596;10.166;2023-03-11T09:38:50;1.30;99.90
16172;DHT22;8192;53.596;10.166;2023-03-11T09:41:28;1.40;99.90
16172;DHT22;8192;53.596;10.166;2023-03-11T09:44:07;1.40;99.90
16172;DHT22;8192;53.596;10.166;2023-03-11T09:47:16;1.50;99.90
16172;DHT22;8192;53.596;10.166;2023-03-11T09:52:57;1.50;99.90
16172;DHT22;8192;53.596;10.166;2023-03-11T09:55:36;1.60;99.90
16172;DHT22;8192;53.596;10.166;2023-03-11T09:58:14;1.60;99.90
16172;DHT22;8192;53.596;10.166;2023-03-11T10:00:43;1.60;99.90
16172;DHT22;8192;53.596;10.166;2023-03-11T10:03:32;1.60;99.90
16172;DHT22;8192;53.596;10.166;2023-03-11T10:06:06;1.60;99.90
16172;DHT22;8192;53.596;10.166;2023-03-11T10:08:41;1.70;99.90
16172;DHT22;8192;53.596;10.166;2023-03-11T10:11:34;1.70;99.90
16172;DHT22;8192;53.596;10.166;2023-03-11T10:14:11;1.70;99.90
16172;DHT22;8192;53.596;10.166;2023-03-11T10:16:48;1.80;99.90
16172;DHT22;8192;53.596;10.166;2023-03-11T10:19:29;1.90;99.90
16172;DHT22;8192;53.596;10.166;2023-03-11T10:22:08;1.90;99.90
16172;DHT22;8192;53.596;10.166;2023-03-11T10:24:50;1.90;99.90
16172;DHT22;8192;53.596;10.166;2023-03-11T10:27:27;2.00;99.90
16172;DHT22;8192;53.596;10.166;2023-03-11T10:30:02;2.10;99.90
16172;DHT22;8192;53.596;10.166;2023-03-11T10:32:37;2.10;99.90
16172;DHT22;8192;53.596;10.166;2023-03-11T10:35:15;2.00;99.90
16172;DHT22;8192;53.596;10.166;2023-03-11T10:37:47;2.10;99.90
16172;DHT22;8192;53.596;10.166;2023-03-11T10:40:25;2.20;99.90
16172;DHT22;8192;53.596;10.166;2023-03-11T10:43:02;2.20;99.90
16172;DHT22;8192;53.596;10.166;2023-03-11T10:45:35;2.20;99.90
16172;DHT22;8192;53.596;10.166;2023-03-11T10:48:08;2.10;99.90
16172;DHT22;8192;53.596;10.166;2023-03-11T10:50:45;2.20;99.90
16172;DHT22;8192;53.596;10.166;2023-03-11T10:53:15;2.20;99.90
16172;DHT22;8192;53.596;10.166;2023-03-11T10:55:46;2.30;99.90
16172;DHT22;8192;53.596;10.166;2023-03-11T10:58:18;2.30;99.90
16172;DHT22;8192;53.596;10.166;2023-03-11T11:00:45;2.40;99.90
16172;DHT22;8192;53.596;10.166;2023-03-11T11:03:20;2.60;99.90
16172;DHT22;8192;53.596;10.166;2023-03-11T11:06:04;2.70;99.90
16172;DHT22;8192;53.596;10.166;2023-03-11T11:08:32;2.60;99.90
16172;DHT22;8192;53.596;10.166;2023-03-11T11:11:00;2.60;99.90
16172;DHT22;8192;53.596;10.166;2023-03-11T11:13:30;2.60;99.90
16172;DHT22;8192;53.596;10.166;2023-03-11T11:16:18;2.60;99.90
16172;DHT22;8192;53.596;10.166;2023-03-11T11:18:48;2.70;99.90
16172;DHT22;8192;53.596;10.166;2023-03-11T11:21:42;2.70;99.90
16172;DHT22;8192;53.596;10.166;2023-03-11T11:24:27;2.90;99.90
16172;DHT22;8192;53.596;10.166;2023-03-11T11:27:16;3.00;99.90
16172;DHT22;8192;53.596;10.166;2023-03-11T11:29:46;3.20;99.90
16172;DHT22;8192;53.596;10.166;2023-03-11T11:32:23;3.20;99.90
16172;DHT22;8192;53.596;10.166;2023-03-11T11:35:11;3.40;99.90
16172;DHT22;8192;53.596;10.166;2023-03-11T11:37:46;3.40;99.90
16172;DHT22;8192;53.596;10.166;2023-03-11T11:40:25;3.70;99.90
16172;DHT22;8192;53.596;10.166;2023-03-11T11:43:10;3.70;99.90
16172;DHT22;8192;53.596;10.166;2023-03-11T11:45:40;3.70;99.90
16172;DHT22;8192;53.596;10.166;2023-03-11T11:51:33;3.60;99.90
16172;DHT22;8192;53.596;10.166;2023-03-11T11:54:23;3.70;99.90
16172;DHT22;8192;53.596;10.166;2023-03-11T11:56:52;3.70;99.90
16172;DHT22;8192;53.596;10.166;2023-03-11T11:59:21;3.70;99.90
16172;DHT22;8192;53.596;10.166;2023-03-11T12:01:58;3.60;99.90
16172;DHT22;8192;53.596;10.166;2023-03-11T12:04:43;3.60;99.90
16172;DHT22;8192;53.596;10.166;2023-03-11T12:07:31;3.60;99.90
16172;DHT22;8192;53.596;10.166;2023-03-11T12:10:11;3.90;99.90
16172;DHT22;8192;53.596;10.166;2023-03-11T12:12:49;4.00;99.90
16172;DHT22;8192;53.596;10.166;2023-03-11T12:15:24;3.90;99.90
16172;DHT22;8192;53.596;10.166;2023-03-11T12:17:58;4.00;99.90
16172;DHT22;8192;53.596;10.166;2023-03-11T12:20:30;4.20;99.90
16172;DHT22;8192;53.596;10.166;2023-03-11T12:23:15;4.20;99.90
16172;DHT22;8192;53.596;10.166;2023-03-11T12:26:03;4.30;99.90
16172;DHT22;8192;53.596;10.166;2023-03-11T12:28:41;4.40;99.90
16172;DHT22;8192;53.596;10.166;2023-03-11T12:34:19;4.90;99.90
16172;DHT22;8192;53.596;10.166;2023-03-11T12:36:50;5.20;99.90
16172;DHT22;8192;53.596;10.166;2023-03-11T12:39:21;4.90;99.90
16172;DHT22;8192;53.596;10.166;2023-03-11T12:42:16;4.80;99.90
16172;DHT22;8192;53.596;10.166;2023-03-11T12:44:44;4.70;99.90
16172;DHT22;8192;53.596;10.166;2023-03-11T12:47:23;4.60;99.90
16172;DHT22;8192;53.596;10.166;2023-03-11T12:49:53;4.50;99.90
16172;DHT22;8192;53.596;10.166;2023-03-11T12:52:26;4.50;99.90
16172;DHT22;8192;53.596;10.166;2023-03-11T13:01:31;4.40;99.90
16172;DHT22;8192;53.596;10.166;2023-03-11T13:04:19;4.50;99.90
16172;DHT22;8192;53.596;10.166;2023-03-11T13:10:02;4.50;99.90
16172;DHT22;8192;53.596;10.166;2023-03-11T13:12:42;4.50;99.90
16172;DHT22;8192;53.596;10.166;2023-03-11T13:15:29;4.60;99.90
16172;DHT22;8192;53.596;10.166;2023-03-11T13:18:03;4.60;99.90
16172;DHT22;8192;53.596;10.166;2023-03-11T13:20:47;4.60;99.90
16172;DHT22;8192;53.596;10.166;2023-03-11T13:23:33;4.60;99.90
16172;DHT22;8192;53.596;10.166;2023-03-11T13:26:21;4.80;99.90
16172;DHT22;8192;53.596;10.166;2023-03-11T13:32:11;5.20;99.90
16172;DHT22;8192;53.596;10.166;2023-03-11T13:34:49;5.30;99.90
16172;DHT22;8192;53.596;10.166;2023-03-11T13:37:25;5.50;99.90
16172;DHT22;8192;53.596;10.166;2023-03-11T13:40:01;5.40;99.90
16172;DHT22;8192;53.596;10.166;2023-03-11T13:42:35;5.40;99.90
16172;DHT22;8192;53.596;10.166;2023-03-11T13:45:08;5.30;99.90
16172;DHT22;8192;53.596;10.166;2023-03-11T13:47:42;5.50;99.90
16172;DHT22;8192;53.596;10.166;2023-03-11T13:50:19;5.30;99.90
16172;DHT22;8192;53.596;10.166;2023-03-11T13:52:50;5.10;99.90
16172;DHT22;8192;53.596;10.166;2023-03-11T13:55:22;5.10;99.90
16172;DHT22;8192;53.596;10.166;2023-03-11T13:57:51;5.30;99.90
16172;DHT22;8192;53.596;10.166;2023-03-11T14:00:21;5.60;99.90
16172;DHT22;8192;53.596;10.166;2023-03-11T14:02:51;5.40;99.90
16172;DHT22;8192;53.596;10.166;2023-03-11T14:05:23;5.10;99.90
16172;DHT22;8192;53.596;10.166;2023-03-11T14:07:51;5.00;99.90
16172;DHT22;8192;53.596;10.166;2023-03-11T14:10:26;5.00;99.90
16172;DHT22;8192;53.596;10.166;2023-03-11T14:13:17;5.00;99.90
16172;DHT22;8192;53.596;10.166;2023-03-11T14:15:51;5.00;99.90
16172;DHT22;8192;53.596;10.166;2023-03-11T14:18:31;5.00;99.90
16172;DHT22;8192;53.596;10.166;2023-03-11T14:21:01;5.00;99.90
16172;DHT22;8192;53.596;10.166;2023-03-11T14:23:35;5.00;99.90
16172;DHT22;8192;53.596;10.166;2023-03-11T14:26:23;5.10;99.90
16172;DHT22;8192;53.596;10.166;2023-03-11T14:28:57;5.20;99.90
16172;DHT22;8192;53.596;10.166;2023-03-11T14:34:20;5.00;99.90
16172;DHT22;8192;53.596;10.166;2023-03-11T14:36:54;5.00;99.90
16172;DHT22;8192;53.596;10.166;2023-03-11T14:39:33;4.90;99.90
16172;DHT22;8192;53.596;10.166;2023-03-11T14:42:05;5.00;99.90
16172;DHT22;8192;53.596;10.166;2023-03-11T14:44:33;5.10;99.90
16172;DHT22;8192;53.596;10.166;2023-03-11T14:47:08;5.20;99.90
16172;DHT22;8192;53.596;10.166;2023-03-11T14:49:51;5.60;99.90
16172;DHT22;8192;53.596;10.166;2023-03-11T14:52:22;6.10;99.90
16172;DHT22;8192;53.596;10.166;2023-03-11T14:54:51;6.30;99.90
16172;DHT22;8192;53.596;10.166;2023-03-11T14:57:23;5.90;99.90
16172;DHT22;8192;53.596;10.166;2023-03-11T14:59:54;5.60;99.90
16172;DHT22;8192;53.596;10.166;2023-03-11T15:02:39;5.40;99.90
16172;DHT22;8192;53.596;10.166;2023-03-11T15:05:16;5.30;99.90
16172;DHT22;8192;53.596;10.166;2023-03-11T15:07:45;5.30;99.90
16172;DHT22;8192;53.596;10.166;2023-03-11T15:10:14;5.10;99.90
16172;DHT22;8192;53.596;10.166;2023-03-11T15:12:42;5.00;99.90
16172;DHT22;8192;53.596;10.166;2023-03-11T15:15:23;4.80;99.90
16172;DHT22;8192;53.596;10.166;2023-03-11T15:17:52;4.80;99.90
16172;DHT22;8192;53.596;10.166;2023-03-11T15:20:29;4.70;99.90
16172;DHT22;8192;53.596;10.166;2023-03-11T15:22:57;4.70;99.90
16172;DHT22;8192;53.596;10.166;2023-03-11T15:25:29;4.70;99.90
16172;DHT22;8192;53.596;10.166;2023-03-11T15:27:57;4.70;99.90
16172;DHT22;8192;53.596;10.166;2023-03-11T15:30:26;4.70;99.90
16172;DHT22;8192;53.596;10.166;2023-03-11T15:32:55;4.70;99.90
16172;DHT22;8192;53.596;10.166;2023-03-11T15:35:23;4.80;99.90
16172;DHT22;8192;53.596;10.166;2023-03-11T15:38:12;4.80;99.90
16172;DHT22;8192;53.596;10.166;2023-03-11T15:40:51;4.70;99.90
16172;DHT22;8192;53.596;10.166;2023-03-11T15:43:27;4.70;99.90
16172;DHT22;8192;53.596;10.166;2023-03-11T15:45:58;4.60;99.90
16172;DHT22;8192;53.596;10.166;2023-03-11T15:48:31;4.60;99.90
16172;DHT22;8192;53.596;10.166;2023-03-11T15:50:59;4.70;99.90
16172;DHT22;8192;53.596;10.166;2023-03-11T15:53:29;4.60;99.90
16172;DHT22;8192;53.596;10.166;2023-03-11T15:58:57;4.50;99.90
16172;DHT22;8192;53.596;10.166;2023-03-11T16:01:29;4.50;99.90
16172;DHT22;8192;53.596;10.166;2023-03-11T16:03:56;4.30;99.90
16172;DHT22;8192;53.596;10.166;2023-03-11T16:06:24;3.00;99.90
16172;DHT22;8192;53.596;10.166;2023-03-11T16:08:54;2.20;99.90
16172;DHT22;8192;53.596;10.166;2023-03-11T16:11:21;1.70;99.90
16172;DHT22;8192;53.596;10.166;2023-03-11T16:13:50;1.50;99.90
16172;DHT22;8192;53.596;10.166;2023-03-11T16:16:17;1.40;99.90
16172;DHT22;8192;53.596;10.166;2023-03-11T16:18:45;1.30;99.90
16172;DHT22;8192;53.596;10.166;2023-03-11T16:21:14;1.40;99.90
16172;DHT22;8192;53.596;10.166;2023-03-11T16:23:43;1.40;99.90
16172;DHT22;8192;53.596;10.166;2023-03-11T16:26:15;1.40;99.90
16172;DHT22;8192;53.596;10.166;2023-03-11T16:28:42;1.50;99.90
16172;DHT22;8192;53.596;10.166;2023-03-11T16:31:11;1.50;99.90
16172;DHT22;8192;53.596;10.166;2023-03-11T16:33:38;1.50;99.90
16172;DHT22;8192;53.596;10.166;2023-03-11T16:36:11;1.50;99.90
16172;DHT22;8192;53.596;10.166;2023-03-11T16:38:42;1.40;99.90